sensor_id;sensor_type;location;lat;lon;timestamp;pressure;altitude;pressure_sealevel;temperature;humidity
40730;BME280;26418;50.070;8.436;2023-02-14T00:01:21;101985.41;;;3.79;92.22
40730;BME280;26418;50.070;8.436;2023-02-14T00:03:46;101970.78;;;3.75;92.13
40730;BME280;26418;50.070;8.436;2023-02-14T00:06:13;101971.41;;;3.70;91.86
40730;BME280;26418;50.070;8.436;2023-02-14T00:08:40;101981.72;;;3.73;92.16
40730;BME280;26418;50.070;8.436;2023-02-14T00:11:08;101976.72;;;3.64;92.30
40730;BME280;26418;50.070;8.436;2023-02-14T00:13:34;101978.38;;;3.65;92.56
40730;BME280;26418;50.070;8.436;2023-02-14T00:15:59;101981.44;;;3.61;92.77
40730;BME280;26418;50.070;8.436;2023-02-14T00:18:25;101968.09;;;3.55;92.56
40730;BME280;26418;50.070;8.436;2023-02-14T00:21:13;101983.72;;;3.58;92.77
40730;BME280;26418;50.070;8.436;2023-02-14T00:23:39;101983.13;;;3.56;93.14
40730;BME280;26418;50.070;8.436;2023-02-14T00:26:04;101968.69;;;3.50;92.92
40730;BME280;26418;50.070;8.436;2023-02-14T00:28:29;101965.59;;;3.53;92.81
40730;BME280;26418;50.070;8.436;2023-02-14T00:30:56;101963.50;;;3.49;92.87
40730;BME280;26418;50.070;8.436;2023-02-14T00:33:21;101980.44;;;3.56;92.95
40730;BME280;26418;50.070;8.436;2023-02-14T00:35:47;101974.44;;;3.54;93.02
40730;BME280;26418;50.070;8.436;2023-02-14T00:38:12;101984.75;;;3.50;93.01
40730;BME280;26418;50.070;8.436;2023-02-14T00:40:37;101974.41;;;3.40;93.12
40730;BME280;26418;50.070;8.436;2023-02-14T00:43:03;101971.91;;;3.32;93.16
40730;BME280;26418;50.070;8.436;2023-02-14T00:45:28;101988.41;;;3.36;93.46
40730;BME280;26418;50.070;8.436;2023-02-14T00:47:53;101988.78;;;3.33;93.65
40730;BME280;26418;50.070;8.436;2023-02-14T00:50:19;101985.50;;;3.30;93.67
40730;BME280;26418;50.070;8.436;2023-02-14T00:52:44;101985.06;;;3.27;93.78
40730;BME280;26418;50.070;8.436;2023-02-14T00:55:09;101968.13;;;3.13;93.84
40730;BME280;26418;50.070;8.436;2023-02-14T00:57:34;101981.97;;;3.23;93.88
40730;BME280;26418;50.070;8.436;2023-02-14T01:00:00;101981.78;;;3.32;93.63
40730;BME280;26418;50.070;8.436;2023-02-14T01:02:25;101977.69;;;3.29;93.66
40730;BME280;26418;50.070;8.436;2023-02-14T01:04:50;101977.88;;;3.34;93.63
40730;BME280;26418;50.070;8.436;2023-02-14T01:07:16;101961.81;;;3.21;93.53
40730;BME280;26418;50.070;8.436;2023-02-14T01:09:41;101961.97;;;3.12;93.64
40730;BME280;26418;50.070;8.436;2023-02-14T01:12:06;101970.63;;;3.14;93.92
40730;BME280;26418;50.070;8.436;2023-02-14T01:14:32;101979.28;;;3.23;94.16
40730;BME280;26418;50.070;8.436;2023-02-14T01:16:57;101976.63;;;3.23;93.81
40730;BME280;26418;50.070;8.436;2023-02-14T01:19:22;101975.34;;;3.19;93.82
40730;BME280;26418;50.070;8.436;2023-02-14T01:21:48;101979.88;;;3.19;94.07
40730;BME280;26418;50.070;8.436;2023-02-14T01:24:13;101975.19;;;3.21;94.37
40730;BME280;26418;50.070;8.436;2023-02-14T01:26:39;101968.78;;;3.15;94.55
40730;BME280;26418;50.070;8.436;2023-02-14T01:29:04;101976.16;;;3.13;94.42
40730;BME280;26418;50.070;8.436;2023-02-14T01:31:32;101965.22;;;3.01;94.86
40730;BME280;26418;50.070;8.436;2023-02-14T01:33:58;101980.69;;;3.12;94.98
40730;BME280;26418;50.070;8.436;2023-02-14T01:38:53;101982.78;;;3.17;94.78
40730;BME280;26418;50.070;8.436;2023-02-14T01:41:20;101985.03;;;3.13;94.53
40730;BME280;26418;50.070;8.436;2023-02-14T01:43:57;101979.84;;;3.05;94.60
40730;BME280;26418;50.070;8.436;2023-02-14T01:46:25;101978.81;;;3.06;94.81
40730;BME280;26418;50.070;8.436;2023-02-14T01:48:53;101981.47;;;2.99;95.18
40730;BME280;26418;50.070;8.436;2023-02-14T01:51:19;101980.19;;;2.95;95.31
40730;BME280;26418;50.070;8.436;2023-02-14T01:53:45;101977.75;;;3.01;95.66
40730;BME280;26418;50.070;8.436;2023-02-14T01:56:14;101977.34;;;2.97;95.53
40730;BME280;26418;50.070;8.436;2023-02-14T01:58:44;101983.28;;;2.92;95.42
40730;BME280;26418;50.070;8.436;2023-02-14T02:01:15;101977.50;;;2.89;95.65
40730;BME280;26418;50.070;8.436;2023-02-14T02:03:54;101963.66;;;2.78;95.98
40730;BME280;26418;50.070;8.436;2023-02-14T02:06:31;101971.91;;;2.83;96.59
40730;BME280;26418;50.070;8.436;2023-02-14T02:09:14;101985.31;;;2.90;96.04
40730;BME280;26418;50.070;8.436;2023-02-14T02:11:41;101984.28;;;2.91;95.91
40730;BME280;26418;50.070;8.436;2023-02-14T02:14:15;101982.84;;;2.89;95.98
40730;BME280;26418;50.070;8.436;2023-02-14T02:23:21;101979.75;;;2.92;95.47
40730;BME280;26418;50.070;8.436;2023-02-14T02:32:00;101964.75;;;2.91;95.13
40730;BME280;26418;50.070;8.436;2023-02-14T02:43:49;101956.28;;;2.80;95.06
40730;BME280;26418;50.070;8.436;2023-02-14T02:46:33;101951.72;;;2.74;95.04
40730;BME280;26418;50.070;8.436;2023-02-14T02:52:39;101951.28;;;2.71;95.45
40730;BME280;26418;50.070;8.436;2023-02-14T02:58:43;101953.53;;;2.67;95.76
40730;BME280;26418;50.070;8.436;2023-02-14T03:01:12;101951.28;;;2.64;95.59
40730;BME280;26418;50.070;8.436;2023-02-14T03:03:40;101953.09;;;2.63;95.46
40730;BME280;26418;50.070;8.436;2023-02-14T03:06:24;101950.63;;;2.62;95.61
40730;BME280;26418;50.070;8.436;2023-02-14T03:08:50;101952.91;;;2.65;95.65
40730;BME280;26418;50.070;8.436;2023-02-14T03:11:15;101952.25;;;2.56;95.27
40730;BME280;26418;50.070;8.436;2023-02-14T03:14:03;101950.59;;;2.55;95.41
40730;BME280;26418;50.070;8.436;2023-02-14T03:16:34;101956.09;;;2.47;95.44
40730;BME280;26418;50.070;8.436;2023-02-14T03:19:29;101957.34;;;2.51;95.55
40730;BME280;26418;50.070;8.436;2023-02-14T03:22:30;101940.84;;;2.41;95.40
40730;BME280;26418;50.070;8.436;2023-02-14T03:25:10;101937.16;;;2.42;95.45
40730;BME280;26418;50.070;8.436;2023-02-14T03:27:44;101960.03;;;2.51;95.30
40730;BME280;26418;50.070;8.436;2023-02-14T03:30:23;101950.91;;;2.39;95.04
40730;BME280;26418;50.070;8.436;2023-02-14T03:32:58;101962.16;;;2.34;95.30
40730;BME280;26418;50.070;8.436;2023-02-14T03:35:33;101960.72;;;2.31;95.65
40730;BME280;26418;50.070;8.436;2023-02-14T03:38:07;101960.47;;;2.26;95.75
40730;BME280;26418;50.070;8.436;2023-02-14T03:40:38;101956.72;;;2.20;95.71
40730;BME280;26418;50.070;8.436;2023-02-14T03:43:09;101943.13;;;2.15;95.78
40730;BME280;26418;50.070;8.436;2023-02-14T03:45:42;101949.88;;;2.11;95.54
40730;BME280;26418;50.070;8.436;2023-02-14T03:48:12;101955.84;;;2.13;95.41
40730;BME280;26418;50.070;8.436;2023-02-14T03:50:40;101950.47;;;2.07;95.78
40730;BME280;26418;50.070;8.436;2023-02-14T03:53:08;101955.44;;;2.16;95.74
40730;BME280;26418;50.070;8.436;2023-02-14T03:55:42;101959.91;;;2.09;95.05
40730;BME280;26418;50.070;8.436;2023-02-14T03:58:19;101957.28;;;1.87;95.66
40730;BME280;26418;50.070;8.436;2023-02-14T04:00:47;101970.28;;;1.97;95.84
40730;BME280;26418;50.070;8.436;2023-02-14T04:03:15;101958.66;;;1.83;95.82
40730;BME280;26418;50.070;8.436;2023-02-14T04:05:44;101968.41;;;1.91;96.08
40730;BME280;26418;50.070;8.436;2023-02-14T04:08:11;101952.56;;;1.89;96.08
40730;BME280;26418;50.070;8.436;2023-02-14T04:10:44;101954.16;;;1.84;95.36
40730;BME280;26418;50.070;8.436;2023-02-14T04:13:09;101967.81;;;1.96;95.35
40730;BME280;26418;50.070;8.436;2023-02-14T04:15:35;101979.88;;;1.92;95.38
40730;BME280;26418;50.070;8.436;2023-02-14T04:18:00;101984.78;;;1.88;95.61
40730;BME280;26418;50.070;8.436;2023-02-14T04:20:44;101976.97;;;1.86;95.85
40730;BME280;26418;50.070;8.436;2023-02-14T04:23:09;101984.53;;;1.83;95.57
40730;BME280;26418;50.070;8.436;2023-02-14T04:25:34;101977.75;;;1.80;95.55
40730;BME280;26418;50.070;8.436;2023-02-14T04:28:00;101977.53;;;1.82;95.42
40730;BME280;26418;50.070;8.436;2023-02-14T04:30:25;101968.09;;;1.79;95.38
40730;BME280;26418;50.070;8.436;2023-02-14T04:32:50;101979.13;;;1.76;95.01
40730;BME280;26418;50.070;8.436;2023-02-14T04:35:16;101972.53;;;1.72;95.33
40730;BME280;26418;50.070;8.436;2023-02-14T04:37:41;101956.00;;;1.62;95.31
40730;BME280;26418;50.070;8.436;2023-02-14T04:40:07;101954.91;;;1.56;95.37
40730;BME280;26418;50.070;8.436;2023-02-14T04:42:33;101973.84;;;1.61;95.89
40730;BME280;26418;50.070;8.436;2023-02-14T04:44:58;101983.69;;;1.61;95.96
40730;BME280;26418;50.070;8.436;2023-02-14T04:47:24;101985.25;;;1.55;96.12
40730;BME280;26418;50.070;8.436;2023-02-14T04:49:49;101986.59;;;1.44;96.06
40730;BME280;26418;50.070;8.436;2023-02-14T04:52:14;101984.03;;;1.36;96.33
40730;BME280;26418;50.070;8.436;2023-02-14T04:54:40;101974.41;;;1.20;96.59
40730;BME280;26418;50.070;8.436;2023-02-14T04:57:05;101996.63;;;1.27;97.39
40730;BME280;26418;50.070;8.436;2023-02-14T04:59:30;102001.81;;;1.29;97.65
40730;BME280;26418;50.070;8.436;2023-02-14T05:01:56;101993.34;;;1.25;97.59
40730;BME280;26418;50.070;8.436;2023-02-14T05:04:21;101993.91;;;1.20;97.58
40730;BME280;26418;50.070;8.436;2023-02-14T05:06:46;101997.19;;;1.22;97.91
40730;BME280;26418;50.070;8.436;2023-02-14T05:09:12;101990.84;;;1.23;97.68
40730;BME280;26418;50.070;8.436;2023-02-14T05:11:37;101989.75;;;1.18;97.47
40730;BME280;26418;50.070;8.436;2023-02-14T05:14:03;101992.81;;;1.15;97.54
40730;BME280;26418;50.070;8.436;2023-02-14T05:16:28;101987.47;;;1.15;97.71
40730;BME280;26418;50.070;8.436;2023-02-14T05:18:53;101986.63;;;1.14;97.84
40730;BME280;26418;50.070;8.436;2023-02-14T05:21:19;101985.72;;;1.07;98.08
40730;BME280;26418;50.070;8.436;2023-02-14T05:23:44;101987.69;;;0.98;98.03
40730;BME280;26418;50.070;8.436;2023-02-14T05:26:10;101998.97;;;1.00;98.44
40730;BME280;26418;50.070;8.436;2023-02-14T05:28:35;101989.78;;;1.03;98.60
40730;BME280;26418;50.070;8.436;2023-02-14T05:31:00;101981.97;;;1.01;98.73
40730;BME280;26418;50.070;8.436;2023-02-14T05:33:26;101982.44;;;1.05;98.90
40730;BME280;26418;50.070;8.436;2023-02-14T05:35:51;101988.78;;;1.04;98.92
40730;BME280;26418;50.070;8.436;2023-02-14T05:38:17;101989.13;;;1.01;99.10
40730;BME280;26418;50.070;8.436;2023-02-14T05:40:43;101986.47;;;1.01;99.33
40730;BME280;26418;50.070;8.436;2023-02-14T05:43:08;101981.34;;;0.99;99.34
40730;BME280;26418;50.070;8.436;2023-02-14T05:45:34;101989.94;;;1.01;99.88
40730;BME280;26418;50.070;8.436;2023-02-14T05:48:00;101993.72;;;1.07;99.93
40730;BME280;26418;50.070;8.436;2023-02-14T05:50:25;101970.03;;;0.97;100.00
40730;BME280;26418;50.070;8.436;2023-02-14T05:52:51;101983.50;;;1.10;100.00
40730;BME280;26418;50.070;8.436;2023-02-14T05:55:16;101985.72;;;1.22;100.00
40730;BME280;26418;50.070;8.436;2023-02-14T05:57:41;101982.41;;;1.20;100.00
40730;BME280;26418;50.070;8.436;2023-02-14T06:00:07;101978.53;;;1.22;99.81
40730;BME280;26418;50.070;8.436;2023-02-14T06:02:33;101993.50;;;1.23;99.56
40730;BME280;26418;50.070;8.436;2023-02-14T06:04:58;101983.81;;;1.16;99.12
40730;BME280;26418;50.070;8.436;2023-02-14T06:07:24;102002.25;;;1.17;99.04
40730;BME280;26418;50.070;8.436;2023-02-14T06:09:49;101993.44;;;1.17;98.75
40730;BME280;26418;50.070;8.436;2023-02-14T06:12:14;101980.69;;;1.12;99.17
40730;BME280;26418;50.070;8.436;2023-02-14T06:14:40;101988.94;;;1.17;99.20
40730;BME280;26418;50.070;8.436;2023-02-14T06:17:09;101982.97;;;1.15;99.54
40730;BME280;26418;50.070;8.436;2023-02-14T06:19:35;101989.75;;;1.18;99.45
40730;BME280;26418;50.070;8.436;2023-02-14T06:22:00;101999.25;;;1.20;98.85
40730;BME280;26418;50.070;8.436;2023-02-14T06:24:26;101996.72;;;1.19;98.64
40730;BME280;26418;50.070;8.436;2023-02-14T06:26:51;102001.25;;;1.18;98.47
40730;BME280;26418;50.070;8.436;2023-02-14T06:29:16;102011.16;;;1.09;97.44
40730;BME280;26418;50.070;8.436;2023-02-14T06:31:42;102003.28;;;1.01;97.34
40730;BME280;26418;50.070;8.436;2023-02-14T06:34:07;102003.00;;;0.96;97.51
40730;BME280;26418;50.070;8.436;2023-02-14T06:36:33;101983.91;;;0.77;97.76
40730;BME280;26418;50.070;8.436;2023-02-14T06:38:58;102009.91;;;0.90;98.28
40730;BME280;26418;50.070;8.436;2023-02-14T06:41:23;102007.44;;;0.89;98.51
40730;BME280;26418;50.070;8.436;2023-02-14T06:43:49;101999.63;;;0.87;99.00
40730;BME280;26418;50.070;8.436;2023-02-14T06:46:15;101990.44;;;0.90;99.58
40730;BME280;26418;50.070;8.436;2023-02-14T06:48:41;102001.47;;;1.02;99.94
40730;BME280;26418;50.070;8.436;2023-02-14T06:51:06;102012.75;;;1.04;99.36
40730;BME280;26418;50.070;8.436;2023-02-14T06:53:32;101996.41;;;0.92;98.88
40730;BME280;26418;50.070;8.436;2023-02-14T06:55:57;101993.56;;;0.93;99.15
40730;BME280;26418;50.070;8.436;2023-02-14T06:58:22;102004.88;;;0.96;98.90
40730;BME280;26418;50.070;8.436;2023-02-14T07:00:48;101991.34;;;0.82;98.69
40730;BME280;26418;50.070;8.436;2023-02-14T07:03:13;102003.84;;;0.82;99.26
40730;BME280;26418;50.070;8.436;2023-02-14T07:05:39;101985.53;;;0.63;99.06
40730;BME280;26418;50.070;8.436;2023-02-14T07:08:04;102002.47;;;0.71;99.51
40730;BME280;26418;50.070;8.436;2023-02-14T07:10:31;102010.28;;;0.72;99.97
40730;BME280;26418;50.070;8.436;2023-02-14T07:12:58;102006.06;;;0.78;100.00
40730;BME280;26418;50.070;8.436;2023-02-14T07:15:23;101985.66;;;0.70;100.00
40730;BME280;26418;50.070;8.436;2023-02-14T07:17:48;101990.25;;;0.76;100.00
40730;BME280;26418;50.070;8.436;2023-02-14T07:20:14;101998.50;;;0.97;100.00
40730;BME280;26418;50.070;8.436;2023-02-14T07:22:39;101998.59;;;1.18;100.00
40730;BME280;26418;50.070;8.436;2023-02-14T07:25:06;102010.13;;;1.40;100.00
40730;BME280;26418;50.070;8.436;2023-02-14T07:27:32;102004.75;;;1.55;100.00
40730;BME280;26418;50.070;8.436;2023-02-14T07:29:57;102010.88;;;1.71;100.00
40730;BME280;26418;50.070;8.436;2023-02-14T07:32:23;102015.91;;;1.81;100.00
40730;BME280;26418;50.070;8.436;2023-02-14T07:34:49;102000.25;;;1.78;100.00
40730;BME280;26418;50.070;8.436;2023-02-14T07:37:14;102003.94;;;1.77;100.00
40730;BME280;26418;50.070;8.436;2023-02-14T07:39:44;102018.50;;;1.74;100.00
40730;BME280;26418;50.070;8.436;2023-02-14T07:42:10;102023.22;;;1.72;100.00
40730;BME280;26418;50.070;8.436;2023-02-14T07:44:36;102017.41;;;1.68;100.00
40730;BME280;26418;50.070;8.436;2023-02-14T07:47:04;101995.13;;;1.54;100.00
40730;BME280;26418;50.070;8.436;2023-02-14T07:49:29;102013.16;;;1.74;100.00
40730;BME280;26418;50.070;8.436;2023-02-14T07:51:55;102015.66;;;1.76;100.00
40730;BME280;26418;50.070;8.436;2023-02-14T07:54:20;102007.81;;;1.74;100.00
40730;BME280;26418;50.070;8.436;2023-02-14T07:56:45;102011.59;;;1.80;100.00
40730;BME280;26418;50.070;8.436;2023-02-14T07:59:11;102012.22;;;1.82;100.00
40730;BME280;26418;50.070;8.436;2023-02-14T08:01:36;102010.31;;;1.76;98.92
40730;BME280;26418;50.070;8.436;2023-02-14T08:04:01;102009.69;;;1.73;98.99
40730;BME280;26418;50.070;8.436;2023-02-14T08:06:27;102002.44;;;1.67;99.48
40730;BME280;26418;50.070;8.436;2023-02-14T08:08:52;102006.00;;;1.75;99.73
40730;BME280;26418;50.070;8.436;2023-02-14T08:11:18;102011.22;;;1.83;100.00
40730;BME280;26418;50.070;8.436;2023-02-14T08:14:03;102009.81;;;1.87;99.61
40730;BME280;26418;50.070;8.436;2023-02-14T08:16:29;102001.16;;;1.85;98.67
40730;BME280;26418;50.070;8.436;2023-02-14T08:18:56;102007.53;;;1.84;97.79
40730;BME280;26418;50.070;8.436;2023-02-14T08:21:22;102005.69;;;1.84;98.65
40730;BME280;26418;50.070;8.436;2023-02-14T08:23:47;102006.38;;;1.93;99.13
40730;BME280;26418;50.070;8.436;2023-02-14T08:26:13;102013.66;;;2.06;99.33
40730;BME280;26418;50.070;8.436;2023-02-14T08:28:38;101982.41;;;2.00;99.46
40730;BME280;26418;50.070;8.436;2023-02-14T08:31:03;102002.69;;;2.16;98.44
40730;BME280;26418;50.070;8.436;2023-02-14T08:33:29;101987.38;;;2.03;97.50
40730;BME280;26418;50.070;8.436;2023-02-14T08:35:55;102002.69;;;2.16;97.68
40730;BME280;26418;50.070;8.436;2023-02-14T08:38:20;101988.31;;;2.17;97.80
40730;BME280;26418;50.070;8.436;2023-02-14T08:40:46;102013.66;;;2.28;97.65
40730;BME280;26418;50.070;8.436;2023-02-14T08:43:11;101988.94;;;2.19;97.06
40730;BME280;26418;50.070;8.436;2023-02-14T08:45:37;101981.56;;;2.21;97.00
40730;BME280;26418;50.070;8.436;2023-02-14T08:48:08;102004.88;;;2.34;95.62
40730;BME280;26418;50.070;8.436;2023-02-14T08:50:34;101993.91;;;2.22;94.15
40730;BME280;26418;50.070;8.436;2023-02-14T08:53:00;101991.44;;;2.20;94.13
40730;BME280;26418;50.070;8.436;2023-02-14T08:55:26;102002.16;;;2.27;94.57
40730;BME280;26418;50.070;8.436;2023-02-14T08:57:54;101995.34;;;2.25;93.99
40730;BME280;26418;50.070;8.436;2023-02-14T09:00:20;101998.16;;;2.16;93.94
40730;BME280;26418;50.070;8.436;2023-02-14T09:02:49;102001.69;;;2.17;94.65
40730;BME280;26418;50.070;8.436;2023-02-14T09:05:14;102001.47;;;2.18;95.13
40730;BME280;26418;50.070;8.436;2023-02-14T09:07:39;101996.56;;;2.22;95.47
40730;BME280;26418;50.070;8.436;2023-02-14T09:10:05;101999.81;;;2.39;97.36
40730;BME280;26418;50.070;8.436;2023-02-14T09:12:31;101998.22;;;2.51;97.71
40730;BME280;26418;50.070;8.436;2023-02-14T09:14:56;101999.50;;;2.56;95.47
40730;BME280;26418;50.070;8.436;2023-02-14T09:17:22;102001.13;;;2.57;95.19
40730;BME280;26418;50.070;8.436;2023-02-14T09:19:47;101995.56;;;2.51;94.89
40730;BME280;26418;50.070;8.436;2023-02-14T09:22:12;101996.19;;;2.54;94.74
40730;BME280;26418;50.070;8.436;2023-02-14T09:24:39;102000.31;;;2.56;94.59
40730;BME280;26418;50.070;8.436;2023-02-14T09:27:06;101991.88;;;2.53;94.17
40730;BME280;26418;50.070;8.436;2023-02-14T09:29:32;101996.84;;;2.56;93.52
40730;BME280;26418;50.070;8.436;2023-02-14T09:31:59;102000.97;;;2.58;93.49
40730;BME280;26418;50.070;8.436;2023-02-14T09:34:26;102003.03;;;2.63;93.16
40730;BME280;26418;50.070;8.436;2023-02-14T09:37:11;101994.34;;;2.54;91.05
40730;BME280;26418;50.070;8.436;2023-02-14T09:39:54;101975.88;;;2.31;91.18
40730;BME280;26418;50.070;8.436;2023-02-14T09:45:08;101990.16;;;2.45;93.45
40730;BME280;26418;50.070;8.436;2023-02-14T09:47:51;101995.19;;;2.55;93.75
40730;BME280;26418;50.070;8.436;2023-02-14T09:53:29;101983.78;;;2.74;93.11
40730;BME280;26418;50.070;8.436;2023-02-14T09:59:11;101986.28;;;2.82;91.58
40730;BME280;26418;50.070;8.436;2023-02-14T10:01:50;101969.59;;;2.74;91.92
40730;BME280;26418;50.070;8.436;2023-02-14T10:04:33;101990.03;;;2.88;92.06
40730;BME280;26418;50.070;8.436;2023-02-14T10:07:25;101997.88;;;2.96;92.40
40730;BME280;26418;50.070;8.436;2023-02-14T10:12:49;101992.63;;;3.10;92.05
40730;BME280;26418;50.070;8.436;2023-02-14T10:15:27;101990.13;;;3.08;91.75
40730;BME280;26418;50.070;8.436;2023-02-14T10:20:45;101995.53;;;3.22;90.61
40730;BME280;26418;50.070;8.436;2023-02-14T10:23:31;101996.97;;;3.18;89.80
40730;BME280;26418;50.070;8.436;2023-02-14T10:25:59;101999.88;;;3.29;91.00
40730;BME280;26418;50.070;8.436;2023-02-14T10:28:33;101991.69;;;3.31;89.64
40730;BME280;26418;50.070;8.436;2023-02-14T10:31:12;101995.38;;;3.30;89.46
40730;BME280;26418;50.070;8.436;2023-02-14T10:33:44;101994.94;;;3.33;90.02
40730;BME280;26418;50.070;8.436;2023-02-14T10:36:44;101984.25;;;3.33;89.50
40730;BME280;26418;50.070;8.436;2023-02-14T10:41:49;101987.16;;;3.38;89.16
40730;BME280;26418;50.070;8.436;2023-02-14T10:46:50;101990.06;;;3.43;88.76
40730;BME280;26418;50.070;8.436;2023-02-14T10:54:49;101967.06;;;3.62;88.34
40730;BME280;26418;50.070;8.436;2023-02-14T10:57:31;101968.94;;;3.69;88.36
40730;BME280;26418;50.070;8.436;2023-02-14T11:00:04;101971.38;;;3.64;85.64
40730;BME280;26418;50.070;8.436;2023-02-14T11:02:34;101964.16;;;3.51;85.44
40730;BME280;26418;50.070;8.436;2023-02-14T11:05:02;101963.91;;;3.39;85.33
40730;BME280;26418;50.070;8.436;2023-02-14T11:07:27;101958.13;;;3.35;86.91
40730;BME280;26418;50.070;8.436;2023-02-14T11:09:54;101942.50;;;3.25;87.52
40730;BME280;26418;50.070;8.436;2023-02-14T11:15:20;101945.44;;;3.44;87.55
40730;BME280;26418;50.070;8.436;2023-02-14T11:17:46;101942.31;;;3.47;86.96
40730;BME280;26418;50.070;8.436;2023-02-14T11:22:46;101917.00;;;3.50;86.82
40730;BME280;26418;50.070;8.436;2023-02-14T11:25:19;101930.22;;;3.65;87.49
40730;BME280;26418;50.070;8.436;2023-02-14T11:27:46;101927.38;;;3.80;88.39
40730;BME280;26418;50.070;8.436;2023-02-14T11:30:34;101927.34;;;3.93;88.67
40730;BME280;26418;50.070;8.436;2023-02-14T11:33:01;101907.38;;;4.02;89.01
40730;BME280;26418;50.070;8.436;2023-02-14T11:35:29;101922.19;;;4.12;84.98
40730;BME280;26418;50.070;8.436;2023-02-14T11:37:59;101910.03;;;3.96;83.35
40730;BME280;26418;50.070;8.436;2023-02-14T11:42:57;101907.41;;;3.89;84.54
40730;BME280;26418;50.070;8.436;2023-02-14T11:45:35;101906.38;;;3.90;85.73
40730;BME280;26418;50.070;8.436;2023-02-14T11:48:19;101910.06;;;4.02;85.36
40730;BME280;26418;50.070;8.436;2023-02-14T11:51:06;101897.28;;;3.91;83.12
40730;BME280;26418;50.070;8.436;2023-02-14T11:53:42;101904.72;;;3.82;83.64
40730;BME280;26418;50.070;8.436;2023-02-14T11:56:08;101903.25;;;3.73;84.81
40730;BME280;26418;50.070;8.436;2023-02-14T12:01:20;101896.88;;;3.67;86.11
40730;BME280;26418;50.070;8.436;2023-02-14T12:03:47;101905.72;;;3.74;85.90
40730;BME280;26418;50.070;8.436;2023-02-14T12:06:26;101890.28;;;3.76;86.15
40730;BME280;26418;50.070;8.436;2023-02-14T12:12:02;101889.06;;;3.79;85.87
40730;BME280;26418;50.070;8.436;2023-02-14T12:14:33;101885.97;;;3.89;86.22
40730;BME280;26418;50.070;8.436;2023-02-14T12:17:27;101890.50;;;3.95;85.43
40730;BME280;26418;50.070;8.436;2023-02-14T12:22:26;101871.53;;;4.10;85.79
40730;BME280;26418;50.070;8.436;2023-02-14T12:24:58;101862.44;;;4.18;85.48
40730;BME280;26418;50.070;8.436;2023-02-14T12:30:19;101868.84;;;4.17;83.66
40730;BME280;26418;50.070;8.436;2023-02-14T12:32:55;101863.69;;;4.15;84.65
40730;BME280;26418;50.070;8.436;2023-02-14T12:38:18;101867.00;;;4.17;84.02
40730;BME280;26418;50.070;8.436;2023-02-14T12:41:15;101862.88;;;4.15;84.16
40730;BME280;26418;50.070;8.436;2023-02-14T12:43:51;101864.94;;;4.06;82.76
40730;BME280;26418;50.070;8.436;2023-02-14T12:49:17;101832.66;;;3.81;84.19
40730;BME280;26418;50.070;8.436;2023-02-14T12:51:58;101847.03;;;3.93;84.91
40730;BME280;26418;50.070;8.436;2023-02-14T12:54:48;101842.91;;;4.04;85.30
40730;BME280;26418;50.070;8.436;2023-02-14T13:13:57;101820.66;;;4.03;82.78
40730;BME280;26418;50.070;8.436;2023-02-14T13:16:52;101819.44;;;3.99;83.64
40730;BME280;26418;50.070;8.436;2023-02-14T13:22:05;101814.06;;;4.13;85.27
40730;BME280;26418;50.070;8.436;2023-02-14T13:24:41;101798.66;;;4.53;96.73
40730;BME280;26418;50.070;8.436;2023-02-14T13:27:15;101806.22;;;5.34;100.00
40730;BME280;26418;50.070;8.436;2023-02-14T13:29:47;101798.72;;;5.68;100.00
40730;BME280;26418;50.070;8.436;2023-02-14T13:32:17;101795.75;;;5.51;86.87
40730;BME280;26418;50.070;8.436;2023-02-14T13:34:48;101789.91;;;5.35;86.43
40730;BME280;26418;50.070;8.436;2023-02-14T13:37:17;101789.03;;;5.16;83.75
40730;BME280;26418;50.070;8.436;2023-02-14T13:40:06;101795.84;;;5.12;84.95
40730;BME280;26418;50.070;8.436;2023-02-14T13:48:11;101788.13;;;4.97;81.29
40730;BME280;26418;50.070;8.436;2023-02-14T13:53:34;101764.50;;;4.81;80.70
40730;BME280;26418;50.070;8.436;2023-02-14T13:56:04;101781.59;;;4.86;81.18
40730;BME280;26418;50.070;8.436;2023-02-14T13:58:30;101788.16;;;4.91;81.00
40730;BME280;26418;50.070;8.436;2023-02-14T14:00:56;101785.50;;;4.84;80.10
40730;BME280;26418;50.070;8.436;2023-02-14T14:10:54;101767.72;;;4.64;80.27
40730;BME280;26418;50.070;8.436;2023-02-14T14:16:24;101780.47;;;4.69;81.07
40730;BME280;26418;50.070;8.436;2023-02-14T14:21:24;101770.56;;;4.63;81.56
40730;BME280;26418;50.070;8.436;2023-02-14T14:26:44;101771.16;;;4.71;81.02
40730;BME280;26418;50.070;8.436;2023-02-14T14:29:41;101774.50;;;4.67;79.61
40730;BME280;26418;50.070;8.436;2023-02-14T14:32:08;101768.50;;;4.65;80.89
40730;BME280;26418;50.070;8.436;2023-02-14T14:34:34;101772.03;;;4.65;81.41
40730;BME280;26418;50.070;8.436;2023-02-14T14:37:06;101754.75;;;4.54;80.38
40730;BME280;26418;50.070;8.436;2023-02-14T14:39:33;101757.28;;;4.43;81.40
40730;BME280;26418;50.070;8.436;2023-02-14T14:42:26;101756.88;;;4.46;81.75
40730;BME280;26418;50.070;8.436;2023-02-14T14:44:58;101756.25;;;4.44;82.38
40730;BME280;26418;50.070;8.436;2023-02-14T14:47:35;101749.06;;;4.44;82.19
40730;BME280;26418;50.070;8.436;2023-02-14T14:50:08;101758.69;;;4.52;81.89
40730;BME280;26418;50.070;8.436;2023-02-14T14:52:41;101747.66;;;4.74;85.01
40730;BME280;26418;50.070;8.436;2023-02-14T14:55:16;101737.91;;;4.79;81.51
40730;BME280;26418;50.070;8.436;2023-02-14T14:57:48;101732.78;;;4.78;81.00
40730;BME280;26418;50.070;8.436;2023-02-14T15:05:44;101721.13;;;4.65;81.62
40730;BME280;26418;50.070;8.436;2023-02-14T15:10:38;101720.28;;;4.65;81.86
40730;BME280;26418;50.070;8.436;2023-02-14T15:13:04;101712.88;;;4.60;82.12
40730;BME280;26418;50.070;8.436;2023-02-14T15:15:49;101710.91;;;4.49;82.12
40730;BME280;26418;50.070;8.436;2023-02-14T15:18:16;101708.00;;;4.50;82.23
40730;BME280;26418;50.070;8.436;2023-02-14T15:20:48;101709.00;;;4.56;81.48
40730;BME280;26418;50.070;8.436;2023-02-14T15:23:19;101712.88;;;4.60;82.13
40730;BME280;26418;50.070;8.436;2023-02-14T15:25:46;101710.19;;;4.60;81.69